createdAt,value
2023-06-16T00:03:51.335Z,3.10
2023-06-16T00:14:49.878Z,3.10
2023-06-16T00:25:47.330Z,3.10
2023-06-16T00:36:44.807Z,3.09
2023-06-16T00:47:42.105Z,3.09
2023-06-16T00:58:41.863Z,3.09
2023-06-16T01:09:36.861Z,3.08
2023-06-16T01:20:37.807Z,3.08
2023-06-16T01:31:36.716Z,3.07
2023-06-16T01:42:37.151Z,3.07
2023-06-16T01:53:34.191Z,3.07
2023-06-16T02:04:35.613Z,3.07
2023-06-16T02:15:37.805Z,3.06
2023-06-16T02:26:33.112Z,3.06
2023-06-16T02:37:30.447Z,3.05
2023-06-16T02:48:31.497Z,3.05
2023-06-16T02:59:32.691Z,3.05
2023-06-16T03:10:32.860Z,3.04
2023-06-16T03:21:31.583Z,3.05
2023-06-16T03:32:33.174Z,3.05
2023-06-16T03:43:29.929Z,3.05
2023-06-16T03:54:31.604Z,3.05
2023-06-16T04:05:32.756Z,3.06
2023-06-16T04:16:34.832Z,3.06
2023-06-16T04:27:36.700Z,3.07
2023-06-16T04:38:38.214Z,3.08
2023-06-16T04:49:40.923Z,3.11
2023-06-16T05:00:37.004Z,3.14
2023-06-16T05:11:36.784Z,3.18
2023-06-16T05:22:39.055Z,3.20
2023-06-16T05:33:40.905Z,3.21
2023-06-16T05:44:41.031Z,3.21
2023-06-16T05:55:41.802Z,3.21
2023-06-16T06:06:42.768Z,3.21
2023-06-16T06:17:43.214Z,3.21
2023-06-16T06:28:44.961Z,3.23
2023-06-16T06:39:45.854Z,3.24
2023-06-16T06:50:46.910Z,3.25
2023-06-16T07:01:48.921Z,3.26
2023-06-16T07:12:48.796Z,3.29
2023-06-16T07:23:50.013Z,3.30
2023-06-16T07:34:50.528Z,3.33
2023-06-16T07:45:49.972Z,3.34
2023-06-16T07:56:49.125Z,3.37
2023-06-16T08:07:49.615Z,3.38
2023-06-16T08:18:50.738Z,3.33
2023-06-16T08:29:52.125Z,3.36
2023-06-16T08:40:53.070Z,3.34
2023-06-16T08:51:54.144Z,3.36
2023-06-16T09:02:49.561Z,3.36
2023-06-16T09:13:49.702Z,3.34
2023-06-16T09:24:51.193Z,3.36
2023-06-16T09:35:50.546Z,3.35
2023-06-16T09:46:50.338Z,3.36
2023-06-16T09:57:49.737Z,3.36
2023-06-16T10:08:50.181Z,3.37
2023-06-16T10:19:51.139Z,3.37
2023-06-16T10:30:50.980Z,3.36
2023-06-16T10:41:50.540Z,3.37
2023-06-16T10:52:52.399Z,3.38
2023-06-16T11:03:50.048Z,3.36
2023-06-16T11:14:42.864Z,3.39
2023-06-16T11:25:18.953Z,3.39
2023-06-16T11:36:18.050Z,3.43
2023-06-16T11:47:20.670Z,3.44
2023-06-16T11:58:19.836Z,3.38
2023-06-16T12:08:52.612Z,3.37
2023-06-16T12:19:23.960Z,3.44
2023-06-16T12:30:27.233Z,3.37
2023-06-16T12:41:23.546Z,3.42
2023-06-16T12:52:00.323Z,3.40
2023-06-16T13:02:56.464Z,3.45
2023-06-16T13:13:53.247Z,3.37
2023-06-16T13:24:49.740Z,3.37
2023-06-16T13:35:45.916Z,3.38
2023-06-16T13:46:46.380Z,3.42
2023-06-16T13:57:46.511Z,3.42
2023-06-16T14:08:48.619Z,3.37
2023-06-16T14:19:42.807Z,3.37
2023-06-16T14:30:39.678Z,3.37
2023-06-16T14:41:25.614Z,3.37
2023-06-16T14:51:57.852Z,3.38
2023-06-16T15:02:53.186Z,3.37
2023-06-16T15:13:24.091Z,3.41
2023-06-16T15:24:19.154Z,3.37
2023-06-16T15:35:13.584Z,3.39
2023-06-16T15:46:06.506Z,3.38
2023-06-16T15:57:03.493Z,3.38
2023-06-16T16:07:59.073Z,3.37
2023-06-16T16:18:51.706Z,3.38
2023-06-16T16:29:47.738Z,3.38
2023-06-16T16:40:44.326Z,3.37
2023-06-16T16:51:44.098Z,3.40
2023-06-16T17:02:40.337Z,3.40
2023-06-16T17:13:37.438Z,3.39
2023-06-16T17:24:34.742Z,3.39
2023-06-16T17:35:31.311Z,3.39
2023-06-16T17:46:19.981Z,3.39
2023-06-16T17:57:10.702Z,3.39
2023-06-16T18:08:05.087Z,3.39
2023-06-16T18:19:04.777Z,3.37
2023-06-16T18:30:03.623Z,3.36
2023-06-16T18:41:02.878Z,3.34
2023-06-16T18:51:56.378Z,3.33
2023-06-16T19:02:55.750Z,3.32
2023-06-16T19:13:55.859Z,3.31
2023-06-16T19:24:48.992Z,3.30
2023-06-16T19:35:47.611Z,3.29
2023-06-16T19:46:43.174Z,3.28
2023-06-16T19:57:26.883Z,3.27
2023-06-16T20:08:26.123Z,3.26
2023-06-16T20:19:23.589Z,3.26
2023-06-16T20:30:21.223Z,3.25
2023-06-16T20:41:20.372Z,3.25
2023-06-16T20:52:20.096Z,3.24
2023-06-16T21:03:18.926Z,3.23
2023-06-16T21:14:15.381Z,3.22
2023-06-16T21:25:10.678Z,3.22
2023-06-16T21:36:09.339Z,3.21
2023-06-16T21:47:09.941Z,3.21
2023-06-16T21:58:10.208Z,3.20
2023-06-16T22:09:11.107Z,3.19
2023-06-16T22:20:12.521Z,3.19
2023-06-16T22:31:09.985Z,3.18
2023-06-16T22:42:10.616Z,3.18
2023-06-16T22:53:10.841Z,3.18
2023-06-16T23:04:07.119Z,3.17
2023-06-16T23:15:07.581Z,3.17
2023-06-16T23:26:07.704Z,3.17
2023-06-16T23:37:06.002Z,3.15
2023-06-16T23:48:02.564Z,3.15
2023-06-16T23:59:02.532Z,3.15
